createdAt,value
2019-03-16T00:01:56.138Z,10.57
2019-03-16T00:04:31.628Z,10.52
2019-03-16T00:07:32.157Z,10.56
2019-03-16T00:10:08.739Z,10.62
2019-03-16T00:12:55.847Z,10.29
2019-03-16T00:15:43.269Z,10.28
2019-03-16T00:18:30.901Z,10.24
2019-03-16T00:21:18.733Z,10.20
2019-03-16T00:24:06.919Z,10.16
2019-03-16T00:26:54.502Z,10.08
2019-03-16T00:29:41.928Z,10.07
2019-03-16T00:32:29.266Z,9.92
2019-03-16T00:35:16.571Z,10.03
2019-03-16T00:38:04.199Z,10.06
2019-03-16T00:40:51.547Z,10.25
2019-03-16T00:43:38.969Z,10.30
2019-03-16T00:46:26.452Z,10.45
2019-03-16T00:49:13.800Z,10.62
2019-03-16T00:52:01.221Z,10.38
2019-03-16T00:54:48.336Z,10.44
2019-03-16T00:57:35.862Z,10.37
2019-03-16T01:00:23.388Z,10.32
2019-03-16T01:03:10.711Z,9.95
2019-03-16T01:05:58.141Z,9.96
2019-03-16T01:08:45.987Z,10.10
2019-03-16T01:11:33.391Z,10.12
2019-03-16T01:14:20.816Z,9.93
2019-03-16T01:17:08.342Z,10.10
2019-03-16T01:19:55.971Z,9.85
2019-03-16T01:22:43.395Z,9.95
2019-03-16T01:25:30.820Z,10.02
2019-03-16T01:28:18.449Z,10.34
2019-03-16T01:31:05.873Z,10.06
2019-03-16T01:33:53.506Z,10.25
2019-03-16T01:36:40.720Z,10.45
2019-03-16T01:39:28.555Z,10.14
2019-03-16T01:42:15.980Z,10.05
2019-03-16T01:45:03.530Z,9.99
2019-03-16T01:47:51.031Z,9.82
2019-03-16T01:50:38.456Z,9.84
2019-03-16T01:53:26.089Z,10.02
2019-03-16T01:56:13.304Z,10.09
2019-03-16T01:59:01.244Z,10.27
2019-03-16T02:01:49.424Z,10.31
2019-03-16T02:04:36.913Z,10.42
2019-03-16T02:07:24.434Z,10.46
2019-03-16T02:10:12.268Z,10.42
2019-03-16T02:12:59.901Z,10.35
2019-03-16T02:15:47.527Z,10.54
2019-03-16T02:18:35.258Z,10.40
2019-03-16T02:21:22.477Z,10.00
2019-03-16T02:24:10.003Z,10.00
2019-03-16T02:26:57.632Z,10.07
2019-03-16T02:29:45.466Z,10.18
2019-03-16T02:32:32.906Z,10.26
2019-03-16T02:35:20.423Z,9.91
2019-03-16T02:38:07.759Z,10.23
2019-03-16T02:40:55.382Z,10.16
2019-03-16T02:43:43.214Z,10.11
2019-03-16T02:46:30.973Z,10.05
2019-03-16T02:49:18.677Z,10.18
2019-03-16T02:52:06.093Z,10.21
2019-03-16T02:54:53.105Z,10.27
2019-03-16T02:57:41.244Z,10.21
2019-03-16T03:00:29.181Z,10.12
2019-03-16T03:03:28.700Z,10.31
2019-03-16T03:06:05.873Z,10.20
2019-03-16T03:08:53.311Z,10.21
2019-03-16T03:11:41.029Z,10.22
2019-03-16T03:14:28.152Z,10.18
2019-03-16T03:17:15.880Z,10.17
2019-03-16T03:20:04.940Z,10.21
2019-03-16T03:22:52.880Z,10.12
2019-03-16T03:25:40.404Z,10.24
2019-03-16T03:28:27.831Z,10.21
2019-03-16T03:31:15.458Z,10.21
2019-03-16T03:34:03.201Z,10.00
2019-03-16T03:36:51.124Z,9.91
2019-03-16T03:39:38.240Z,9.43
2019-03-16T03:42:25.668Z,9.54
2019-03-16T03:45:14.138Z,9.87
2019-03-16T03:48:01.644Z,10.11
2019-03-16T03:50:49.066Z,10.19
2019-03-16T03:53:40.805Z,10.07
2019-03-16T03:56:26.060Z,9.94
2019-03-16T03:59:13.691Z,10.12
2019-03-16T04:02:01.317Z,9.98
2019-03-16T04:04:48.845Z,9.99
2019-03-16T04:07:36.891Z,9.85
2019-03-16T04:10:24.821Z,9.97
2019-03-16T04:13:12.643Z,10.11
2019-03-16T04:16:00.309Z,10.20
2019-03-16T04:18:51.460Z,10.23
2019-03-16T04:21:36.873Z,10.03
2019-03-16T04:24:24.301Z,9.99
2019-03-16T04:27:16.331Z,10.01
2019-03-16T04:30:01.619Z,10.05
2019-03-16T04:32:48.616Z,10.10
2019-03-16T04:35:36.142Z,10.11
2019-03-16T04:38:24.179Z,10.09
2019-03-16T04:41:11.402Z,10.16
2019-03-16T04:43:59.234Z,10.17
2019-03-16T04:46:46.506Z,10.11
2019-03-16T04:49:34.186Z,10.14
2019-03-16T04:52:21.819Z,10.22
2019-03-16T04:55:10.057Z,10.22
2019-03-16T04:57:57.493Z,9.91
2019-03-16T05:00:45.518Z,9.51
2019-03-16T05:03:32.944Z,9.44
2019-03-16T05:06:20.268Z,9.37
2019-03-16T05:09:08.303Z,9.30
2019-03-16T05:11:55.523Z,9.20
2019-03-16T05:14:43.255Z,9.39
2019-03-16T05:17:30.677Z,9.32
2019-03-16T05:20:17.905Z,9.47
2019-03-16T05:23:05.016Z,9.37
2019-03-16T05:25:52.442Z,9.13
2019-03-16T05:28:40.178Z,8.85
2019-03-16T05:31:27.697Z,9.27
2019-03-16T05:34:15.223Z,9.41
2019-03-16T05:37:02.646Z,9.33
2019-03-16T05:39:50.071Z,9.47
2019-03-16T05:42:38.011Z,9.47
2019-03-16T05:45:25.535Z,9.34
2019-03-16T05:48:12.665Z,9.43
2019-03-16T05:51:00.383Z,9.46
2019-03-16T05:53:47.910Z,8.91
2019-03-16T05:56:35.026Z,9.02
2019-03-16T05:59:22.690Z,8.86
2019-03-16T06:02:10.488Z,9.11
2019-03-16T06:05:09.889Z,8.77
2019-03-16T06:07:47.590Z,8.73
2019-03-16T06:10:35.426Z,8.57
2019-03-16T06:13:23.159Z,9.02
2019-03-16T06:16:10.684Z,9.28
2019-03-16T06:18:59.134Z,9.27
2019-03-16T06:21:46.655Z,9.53
2019-03-16T06:24:33.924Z,9.68
2019-03-16T06:27:21.196Z,9.54
2019-03-16T06:30:13.903Z,9.67
2019-03-16T06:33:01.475Z,9.74
2019-03-16T06:35:48.794Z,9.62
2019-03-16T06:38:36.325Z,9.33
2019-03-16T06:41:23.746Z,9.37
2019-03-16T06:44:11.584Z,9.13
2019-03-16T06:46:59.313Z,9.28
2019-03-16T06:49:47.011Z,9.12
2019-03-16T06:52:34.575Z,9.36
2019-03-16T06:55:22.214Z,9.60
2019-03-16T06:58:10.048Z,9.75
2019-03-16T07:00:57.660Z,9.63
2019-03-16T07:03:45.192Z,9.83
2019-03-16T07:06:32.309Z,9.60
2019-03-16T07:09:20.035Z,9.63
2019-03-16T07:12:07.561Z,9.94
2019-03-16T07:14:55.088Z,9.74
2019-03-16T07:17:42.822Z,9.53
2019-03-16T07:20:30.436Z,9.61
2019-03-16T07:23:17.629Z,9.46
2019-03-16T07:26:14.604Z,9.40
2019-03-16T07:28:54.770Z,9.51
2019-03-16T07:31:42.402Z,9.75
2019-03-16T07:34:29.879Z,9.72
2019-03-16T07:37:17.143Z,10.05
2019-03-16T07:40:08.048Z,9.83
2019-03-16T07:42:56.530Z,9.76
2019-03-16T07:45:44.022Z,9.89
2019-03-16T07:48:31.243Z,9.78
2019-03-16T07:51:18.876Z,9.93
2019-03-16T07:54:07.528Z,10.17
2019-03-16T07:56:55.262Z,10.38
2019-03-16T07:59:42.578Z,10.20
2019-03-16T08:02:29.835Z,10.44
2019-03-16T08:05:19.199Z,10.01
2019-03-16T08:08:06.386Z,10.26
2019-03-16T08:10:54.019Z,10.17
2019-03-16T08:13:41.543Z,10.36
2019-03-16T08:16:28.966Z,10.59
2019-03-16T08:19:16.803Z,10.25
2019-03-16T08:22:04.228Z,10.67
2019-03-16T08:24:51.755Z,10.83
2019-03-16T08:27:39.106Z,10.68
2019-03-16T08:30:26.975Z,10.77
2019-03-16T08:33:14.275Z,10.97
2019-03-16T08:36:01.651Z,11.01
2019-03-16T08:38:49.077Z,10.87
2019-03-16T08:41:36.946Z,11.04
2019-03-16T08:44:24.129Z,11.02
2019-03-16T08:47:11.766Z,11.04
2019-03-16T08:50:00.486Z,10.93
2019-03-16T08:52:48.358Z,11.01
2019-03-16T08:55:35.575Z,11.16
2019-03-16T08:58:24.116Z,11.25
2019-03-16T09:01:11.809Z,11.16
2019-03-16T09:03:59.481Z,11.19
2019-03-16T09:06:47.493Z,11.26
2019-03-16T09:09:34.439Z,11.28
2019-03-16T09:12:21.869Z,10.99
2019-03-16T09:15:14.807Z,10.89
2019-03-16T09:18:02.029Z,10.79
2019-03-16T09:20:49.655Z,11.02
2019-03-16T09:23:37.623Z,10.75
2019-03-16T09:26:25.048Z,10.59
2019-03-16T09:29:15.298Z,10.89
2019-03-16T09:32:01.706Z,10.89
2019-03-16T09:34:49.341Z,11.16
2019-03-16T09:37:37.067Z,10.87
2019-03-16T09:40:24.988Z,10.80
2019-03-16T09:43:12.636Z,10.98
2019-03-16T09:46:00.363Z,10.94
2019-03-16T09:48:48.202Z,10.76
2019-03-16T09:51:36.648Z,10.50
2019-03-16T09:54:24.379Z,10.42
2019-03-16T09:57:12.161Z,10.55
2019-03-16T10:00:00.415Z,10.98
2019-03-16T10:02:48.082Z,10.58
2019-03-16T10:05:36.226Z,10.89
2019-03-16T10:08:24.068Z,11.20
2019-03-16T10:11:11.588Z,11.21
2019-03-16T10:13:58.701Z,11.23
2019-03-16T10:16:46.025Z,11.23
2019-03-16T10:19:33.753Z,11.40
2019-03-16T10:22:21.612Z,11.42
2019-03-16T10:25:10.261Z,11.22
2019-03-16T10:27:57.671Z,11.17
2019-03-16T10:30:44.883Z,11.26
2019-03-16T10:33:33.025Z,11.62
2019-03-16T10:36:20.681Z,11.83
2019-03-16T10:39:08.285Z,11.09
2019-03-16T10:41:55.914Z,12.04
2019-03-16T10:44:43.440Z,12.04
2019-03-16T10:47:31.272Z,12.25
2019-03-16T10:50:19.495Z,12.06
2019-03-16T10:53:07.149Z,11.92
2019-03-16T10:55:54.980Z,12.29
2019-03-16T10:58:42.400Z,12.59
2019-03-16T11:01:30.350Z,12.65
2019-03-16T11:04:18.894Z,13.00
2019-03-16T11:07:06.111Z,13.08
2019-03-16T11:09:53.536Z,13.17
2019-03-16T11:12:41.581Z,13.34
2019-03-16T11:15:29.508Z,13.18
2019-03-16T11:18:17.034Z,13.46
2019-03-16T11:21:28.274Z,13.65
2019-03-16T11:24:15.947Z,13.62
2019-03-16T11:27:03.782Z,13.59
2019-03-16T11:29:52.438Z,13.45
2019-03-16T11:32:40.638Z,13.27
2019-03-16T11:35:29.439Z,13.58
2019-03-16T11:38:17.164Z,13.47
2019-03-16T11:41:04.282Z,13.93
2019-03-16T11:43:52.253Z,13.99
2019-03-16T11:46:40.421Z,13.46
2019-03-16T11:49:28.424Z,13.67
2019-03-16T11:52:15.729Z,13.52
2019-03-16T11:55:04.267Z,13.54
2019-03-16T11:57:51.897Z,13.72
2019-03-16T12:00:39.119Z,13.88
2019-03-16T12:03:26.957Z,13.54
2019-03-16T12:06:14.395Z,13.48
2019-03-16T12:09:02.211Z,14.00
2019-03-16T12:11:50.964Z,13.81
2019-03-16T12:14:38.389Z,13.85
2019-03-16T12:17:26.120Z,14.08
2019-03-16T12:20:18.824Z,13.77
2019-03-16T12:23:06.191Z,14.26
2019-03-16T12:25:54.128Z,14.47
2019-03-16T12:28:42.049Z,14.29
2019-03-16T12:31:29.796Z,13.87
2019-03-16T12:34:17.323Z,14.28
2019-03-16T12:37:05.054Z,13.87
2019-03-16T12:39:52.793Z,13.78
2019-03-16T12:42:41.028Z,13.81
2019-03-16T12:45:28.599Z,13.86
2019-03-16T12:48:16.288Z,13.77
2019-03-16T12:51:04.333Z,13.52
2019-03-16T12:53:51.659Z,13.47
2019-03-16T12:56:39.786Z,13.43
2019-03-16T12:59:27.313Z,13.49
2019-03-16T13:02:15.352Z,13.51
2019-03-16T13:05:03.399Z,13.32
2019-03-16T13:07:50.916Z,13.01
2019-03-16T13:10:38.141Z,13.34
2019-03-16T13:13:25.871Z,13.32
2019-03-16T13:16:13.604Z,13.86
2019-03-16T13:19:00.826Z,14.02
2019-03-16T13:21:48.630Z,13.76
2019-03-16T13:24:36.076Z,13.29
2019-03-16T13:27:23.705Z,13.28
2019-03-16T13:30:16.572Z,13.39
2019-03-16T13:33:03.780Z,13.29
2019-03-16T13:35:51.456Z,13.59
2019-03-16T13:38:38.835Z,13.75
2019-03-16T13:41:26.666Z,13.91
2019-03-16T13:44:14.087Z,13.55
2019-03-16T13:47:02.672Z,13.08
2019-03-16T13:49:49.964Z,12.98
2019-03-16T13:52:37.384Z,12.96
2019-03-16T13:55:24.912Z,12.94
2019-03-16T13:58:13.767Z,12.70
2019-03-16T14:01:01.192Z,12.62
2019-03-16T14:03:48.620Z,12.77
2019-03-16T14:06:36.551Z,12.68
2019-03-16T14:09:24.286Z,12.79
2019-03-16T14:12:11.815Z,13.17
2019-03-16T14:14:59.136Z,12.79
2019-03-16T14:17:46.668Z,12.52
2019-03-16T14:20:34.312Z,12.33
2019-03-16T14:23:22.026Z,12.76
2019-03-16T14:26:09.445Z,12.59
2019-03-16T14:28:57.073Z,12.47
2019-03-16T14:31:44.807Z,12.16
2019-03-16T14:34:32.330Z,12.64
2019-03-16T14:37:19.859Z,12.27
2019-03-16T14:40:12.770Z,12.09
2019-03-16T14:43:00.550Z,12.20
2019-03-16T14:45:49.126Z,11.98
2019-03-16T14:48:36.831Z,12.38
2019-03-16T14:51:25.375Z,12.57
2019-03-16T14:54:12.901Z,12.58
2019-03-16T14:57:01.958Z,12.53
2019-03-16T14:59:48.585Z,12.75
2019-03-16T15:02:36.096Z,12.38
2019-03-16T15:05:23.730Z,12.26
2019-03-16T15:08:11.148Z,12.33
2019-03-16T15:10:58.565Z,12.18
2019-03-16T15:13:46.512Z,12.16
2019-03-16T15:16:34.447Z,12.41
2019-03-16T15:19:22.287Z,12.62
2019-03-16T15:22:19.388Z,12.43
2019-03-16T15:25:11.266Z,12.23
2019-03-16T15:27:58.390Z,11.84
2019-03-16T15:30:50.704Z,11.88
2019-03-16T15:33:35.992Z,11.76
2019-03-16T15:36:23.724Z,11.98
2019-03-16T15:39:11.558Z,12.08
2019-03-16T15:41:59.389Z,11.95
2019-03-16T15:44:47.017Z,11.98
2019-03-16T15:47:34.555Z,12.07
2019-03-16T15:50:22.074Z,12.14
2019-03-16T15:53:10.011Z,11.97
2019-03-16T15:55:57.943Z,12.28
2019-03-16T15:58:46.706Z,12.19
2019-03-16T16:01:34.428Z,12.40
2019-03-16T16:04:22.474Z,12.78
2019-03-16T16:07:10.201Z,12.62
2019-03-16T16:09:57.520Z,12.48
2019-03-16T16:12:44.854Z,12.26
2019-03-16T16:15:32.284Z,12.00
2019-03-16T16:18:21.434Z,12.10
2019-03-16T16:21:09.270Z,12.03
2019-03-16T16:23:56.839Z,11.75
2019-03-16T16:26:44.628Z,11.81
2019-03-16T16:29:32.256Z,11.90
2019-03-16T16:32:19.679Z,11.99
2019-03-16T16:35:09.183Z,11.58
2019-03-16T16:37:56.681Z,11.49
2019-03-16T16:40:44.410Z,11.74
2019-03-16T16:43:32.149Z,11.43
2019-03-16T16:46:19.670Z,11.48
2019-03-16T16:49:07.297Z,11.52
2019-03-16T16:51:55.131Z,11.81
2019-03-16T16:54:42.864Z,11.57
2019-03-16T16:57:30.598Z,11.67
2019-03-16T17:00:22.544Z,11.75
2019-03-16T17:03:10.153Z,11.95
2019-03-16T17:05:57.679Z,11.85
2019-03-16T17:08:44.898Z,12.13
2019-03-16T17:11:32.220Z,12.16
2019-03-16T17:14:20.053Z,12.17
2019-03-16T17:17:07.787Z,12.23
2019-03-16T17:19:55.727Z,12.22
2019-03-16T17:22:43.256Z,11.92
2019-03-16T17:25:30.777Z,11.99
2019-03-16T17:28:18.507Z,12.14
2019-03-16T17:31:09.208Z,11.96
2019-03-16T17:33:57.041Z,11.94
2019-03-16T17:36:44.467Z,11.78
2019-03-16T17:39:31.788Z,12.03
2019-03-16T17:42:19.518Z,11.91
2019-03-16T17:45:10.007Z,11.75
2019-03-16T17:47:57.658Z,12.05
2019-03-16T17:50:45.275Z,11.83
2019-03-16T17:53:32.712Z,11.79
2019-03-16T17:56:20.026Z,11.78
2019-03-16T17:59:07.647Z,11.96
2019-03-16T18:01:55.384Z,12.14
2019-03-16T18:04:43.205Z,12.10
2019-03-16T18:07:30.946Z,11.76
2019-03-16T18:10:18.573Z,11.36
2019-03-16T18:13:05.899Z,11.71
2019-03-16T18:15:53.629Z,11.97
2019-03-16T18:18:41.155Z,12.07
2019-03-16T18:21:28.685Z,11.65
2019-03-16T18:24:16.519Z,11.66
2019-03-16T18:27:04.045Z,11.80
2019-03-16T18:29:51.776Z,11.78
2019-03-16T18:32:39.404Z,11.68
2019-03-16T18:35:27.140Z,11.55
2019-03-16T18:38:14.865Z,11.35
2019-03-16T18:41:02.309Z,11.70
2019-03-16T18:43:49.716Z,11.19
2019-03-16T18:46:37.142Z,11.32
2019-03-16T18:49:24.256Z,11.56
2019-03-16T18:52:11.781Z,11.42
2019-03-16T18:54:59.415Z,11.62
2019-03-16T18:57:46.844Z,11.26
2019-03-16T19:00:34.461Z,11.16
2019-03-16T19:03:22.193Z,11.05
2019-03-16T19:06:10.128Z,11.02
2019-03-16T19:08:57.965Z,10.96
2019-03-16T19:11:46.005Z,11.26
2019-03-16T19:14:33.426Z,11.46
2019-03-16T19:17:21.259Z,11.26
2019-03-16T19:20:16.990Z,11.23
2019-03-16T19:23:04.495Z,11.62
2019-03-16T19:25:51.934Z,11.48
2019-03-16T19:28:39.779Z,11.67
2019-03-16T19:31:27.600Z,11.35
2019-03-16T19:34:14.819Z,11.43
2019-03-16T19:37:02.361Z,11.77
2019-03-16T19:39:49.766Z,11.26
2019-03-16T19:42:37.203Z,11.44
2019-03-16T19:45:24.820Z,11.54
2019-03-16T19:48:12.633Z,11.30
2019-03-16T19:50:59.671Z,11.22
2019-03-16T19:53:47.503Z,11.28
2019-03-16T19:56:35.028Z,11.42
2019-03-16T19:59:22.968Z,11.19
2019-03-16T20:02:10.696Z,11.38
2019-03-16T20:04:57.815Z,11.13
2019-03-16T20:07:45.479Z,11.45
2019-03-16T20:10:33.290Z,11.33
2019-03-16T20:13:20.710Z,11.17
2019-03-16T20:16:08.021Z,11.52
2019-03-16T20:18:55.653Z,11.34
2019-03-16T20:21:43.076Z,11.22
2019-03-16T20:24:30.705Z,11.10
2019-03-16T20:27:18.442Z,11.22
2019-03-16T20:30:13.918Z,11.27
2019-03-16T20:33:04.088Z,11.18
2019-03-16T20:35:50.641Z,11.20
2019-03-16T20:38:38.067Z,11.59
2019-03-16T20:41:35.663Z,11.48
2019-03-16T20:44:14.963Z,11.47
2019-03-16T20:47:02.749Z,11.18
2019-03-16T20:49:50.325Z,11.36
2019-03-16T20:52:37.749Z,11.37
2019-03-16T20:55:25.584Z,11.30
2019-03-16T20:58:12.802Z,11.26
2019-03-16T21:01:00.300Z,11.05
2019-03-16T21:03:47.889Z,11.21
2019-03-16T21:06:35.277Z,11.03
2019-03-16T21:09:23.008Z,11.10
2019-03-16T21:12:10.741Z,11.24
2019-03-16T21:14:58.931Z,11.31
2019-03-16T21:17:46.000Z,11.63
2019-03-16T21:20:33.526Z,11.33
2019-03-16T21:23:21.255Z,11.68
2019-03-16T21:26:08.887Z,11.40
2019-03-16T21:28:56.323Z,11.35
2019-03-16T21:31:43.737Z,11.68
2019-03-16T21:34:33.414Z,11.84
2019-03-16T21:37:21.245Z,11.43
2019-03-16T21:40:13.788Z,11.46
2019-03-16T21:43:01.114Z,11.11
2019-03-16T21:45:48.843Z,10.98
2019-03-16T21:48:36.270Z,10.82
2019-03-16T21:51:24.202Z,11.20
2019-03-16T21:54:12.036Z,10.86
2019-03-16T21:56:59.909Z,10.77
2019-03-16T21:59:47.499Z,10.94
2019-03-16T22:02:35.337Z,10.88
2019-03-16T22:05:23.166Z,10.51
2019-03-16T22:08:11.007Z,10.64
2019-03-16T22:10:58.424Z,10.71
2019-03-16T22:13:45.950Z,10.95
2019-03-16T22:16:33.480Z,11.20
2019-03-16T22:19:21.312Z,11.16
2019-03-16T22:22:08.939Z,10.79
2019-03-16T22:24:56.571Z,10.81
2019-03-16T22:27:44.420Z,11.09
2019-03-16T22:30:31.624Z,10.84
2019-03-16T22:33:19.355Z,10.67
2019-03-16T22:36:06.368Z,10.69
2019-03-16T22:38:53.794Z,10.68
2019-03-16T22:41:41.323Z,10.60
2019-03-16T22:44:28.544Z,10.44
2019-03-16T22:47:15.552Z,10.62
2019-03-16T22:50:03.466Z,10.49
2019-03-16T22:52:50.579Z,10.54
2019-03-16T22:55:38.136Z,11.03
2019-03-16T22:58:25.565Z,10.78
2019-03-16T23:01:13.191Z,11.14
2019-03-16T23:04:06.736Z,10.89
2019-03-16T23:06:50.185Z,11.00
2019-03-16T23:09:38.020Z,10.54
2019-03-16T23:12:27.504Z,10.39
2019-03-16T23:15:15.433Z,10.45
2019-03-16T23:18:03.367Z,10.52
2019-03-16T23:20:51.205Z,10.79
2019-03-16T23:23:38.519Z,10.79
2019-03-16T23:26:37.928Z,10.40
2019-03-16T23:29:16.240Z,10.30
2019-03-16T23:32:03.469Z,10.42
2019-03-16T23:34:50.884Z,10.49
2019-03-16T23:37:39.642Z,10.73
2019-03-16T23:40:26.671Z,10.98
2019-03-16T23:43:15.098Z,10.69
2019-03-16T23:46:04.366Z,10.62
2019-03-16T23:48:51.996Z,10.86
2019-03-16T23:51:39.444Z,10.67
2019-03-16T23:54:27.080Z,10.69
2019-03-16T23:57:14.266Z,10.59
